Time;durP1;ratioP1;P1;durP2;ratioP2;P2;SDS_P1;SDS_P2;PMS_P1;PMS_P2;Temp;Humidity;BMP_temperature;BMP_pressure;BME280_temperature;BME280_humidity;BME280_pressure;Samples;Min_cycle;Max_cycle;Signal;HPM_P1;HPM_P2
2022/12/17 13:06:40;;;;;;;11.70;5.22;;;;;;;0.81;100.00;99207.53;2625537;28;20634;-85
2022/12/17 13:08:14;;;;;;;11.57;5.13;;;;;;;0.86;100.00;99208.53;2624846;28;20059;-85
2022/12/17 13:09:45;;;;;;;13.98;5.40;;;;;;;0.73;100.00;99214.22;2624631;28;20532;-87
2022/12/17 13:11:26;;;;;;;10.98;5.05;;;;;;;0.52;100.00;99208.56;2624874;28;20063;-85
2022/12/17 13:12:46;;;;;;;8.45;4.28;;;;;;;0.44;100.00;99217.81;2626941;28;20505;-87
2022/12/17 13:14:10;;;;;;;10.30;4.95;;;;;;;0.68;100.00;99207.22;2624164;28;20150;-85
2022/12/17 13:15:36;;;;;;;9.50;4.10;;;;;;;0.58;100.00;99210.44;2624776;28;20056;-85
2022/12/17 13:16:56;;;;;;;14.07;5.25;;;;;;;0.62;100.00;99207.09;2623807;28;20083;-85
2022/12/17 13:18:35;;;;;;;10.70;5.47;;;;;;;0.50;100.00;99212.81;2625183;28;20101;-84
2022/12/17 13:19:56;;;;;;;13.52;5.70;;;;;;;0.61;100.00;99209.63;2623744;28;20110;-85
2022/12/17 13:21:15;;;;;;;16.63;6.70;;;;;;;0.51;100.00;99208.53;2623357;28;20052;-84
2022/12/17 13:22:32;;;;;;;13.88;6.38;;;;;;;0.80;100.00;99210.94;2623313;28;20481;-84
2022/12/17 13:23:47;;;;;;;14.35;6.22;;;;;;;0.90;100.00;99206.88;2623969;28;20048;-85
2022/12/17 13:25:16;;;;;;;17.52;6.78;;;;;;;0.92;100.00;99211.22;2622681;28;20097;-85
2022/12/17 13:26:40;;;;;;;16.77;6.93;;;;;;;0.76;100.00;99219.44;2621858;28;20090;-85
2022/12/17 13:27:56;;;;;;;12.35;6.13;;;;;;;1.04;100.00;99218.38;2621313;28;20052;-85
2022/12/17 13:29:27;;;;;;;18.67;6.60;;;;;;;0.79;100.00;99228.13;2622068;28;20517;-86
2022/12/17 13:30:42;;;;;;;16.13;7.13;;;;;;;0.83;100.00;99229.94;2621285;28;20060;-88
2022/12/17 13:32:02;;;;;;;14.38;5.82;;;;;;;0.68;100.00;99233.00;2621844;28;20095;-85
2022/12/17 13:33:49;;;;;;;16.75;7.22;;;;;;;0.80;100.00;99237.59;2621908;28;20139;-84
2022/12/17 13:35:11;;;;;;;15.10;6.55;;;;;;;0.53;100.00;99228.34;2620826;28;20052;-84
2022/12/17 13:36:35;;;;;;;17.38;6.90;;;;;;;0.48;100.00;99232.50;2622777;28;20776;-85
2022/12/17 13:38:25;;;;;;;19.77;7.65;;;;;;;0.65;100.00;99235.50;2622061;28;20050;-87
2022/12/17 13:39:59;;;;;;;15.50;6.43;;;;;;;0.98;100.00;99232.03;2622046;28;20089;-84
2022/12/17 13:41:18;;;;;;;16.85;7.35;;;;;;;0.96;100.00;99238.81;2622583;28;20247;-87
2022/12/17 13:42:35;;;;;;;15.68;7.10;;;;;;;0.90;100.00;99242.97;2622199;28;20192;-85
2022/12/17 13:43:56;;;;;;;15.27;6.63;;;;;;;0.68;100.00;99242.44;2621981;28;20047;-84
2022/12/17 13:45:16;;;;;;;18.35;7.10;;;;;;;0.46;100.00;99244.47;2622020;28;20050;-84
2022/12/17 13:46:41;;;;;;;14.35;6.85;;;;;;;0.88;100.00;99242.94;2624143;28;20096;-88
2022/12/17 13:47:58;;;;;;;15.93;6.80;;;;;;;1.58;100.00;99244.50;2622341;28;20055;-85
2022/12/17 13:49:20;;;;;;;16.65;6.72;;;;;;;2.16;98.38;99245.63;2620818;28;20598;-84
2022/12/17 13:50:36;;;;;;;19.55;7.18;;;;;;;2.62;93.78;99245.59;2621757;28;20484;-85
2022/12/17 13:52:28;;;;;;;16.08;7.07;;;;;;;2.53;91.25;99256.66;2619559;28;20379;-85
2022/12/17 13:53:54;;;;;;;15.32;6.93;;;;;;;2.77;90.66;99255.31;2608842;28;20052;-85
2022/12/17 13:55:18;;;;;;;16.58;6.80;;;;;;;3.03;86.94;99249.72;2609068;28;20049;-84
2022/12/17 13:56:35;;;;;;;15.85;6.53;;;;;;;3.44;82.90;99254.63;2621326;28;20051;-87
2022/12/17 13:57:52;;;;;;;17.23;6.90;;;;;;;3.39;82.39;99257.16;2622019;28;20049;-86
2022/12/17 13:59:23;;;;;;;15.52;6.93;;;;;;;2.81;86.02;99260.56;2621675;28;20060;-85
2022/12/17 14:00:39;;;;;;;15.55;6.93;;;;;;;3.27;82.60;99253.53;2620885;28;20080;-89
2022/12/17 14:01:54;;;;;;;13.23;5.80;;;;;;;3.46;81.79;99250.34;2621819;28;20056;-87
2022/12/17 14:03:10;;;;;;;14.45;6.88;;;;;;;3.46;81.13;99252.06;2621793;28;20055;-85
2022/12/17 14:04:28;;;;;;;15.65;6.43;;;;;;;3.34;80.91;99261.41;2622021;28;20137;-84
2022/12/17 14:05:44;;;;;;;12.85;6.63;;;;;;;3.22;82.51;99259.50;2622771;28;20040;-84
2022/12/17 14:07:04;;;;;;;13.68;6.18;;;;;;;2.65;88.00;99258.59;2622126;28;20452;-84
2022/12/17 14:08:27;;;;;;;19.20;8.05;;;;;;;2.73;88.13;99267.34;2622368;28;20135;-84
2022/12/17 14:09:43;;;;;;;12.57;6.20;;;;;;;2.87;88.96;99269.31;2623166;28;20048;-85
2022/12/17 14:12:34;;;;;;;14.27;6.60;;;;;;;2.92;83.45;99267.66;2620503;28;20047;-84
2022/12/17 14:13:50;;;;;;;15.73;7.13;;;;;;;3.14;83.42;99267.97;2621710;28;20059;-85
2022/12/17 14:15:15;;;;;;;16.83;7.07;;;;;;;2.90;83.14;99269.34;2620485;28;20137;-84
2022/12/17 14:16:31;;;;;;;14.55;6.93;;;;;;;2.57;86.62;99279.13;2622453;28;20098;-84
2022/12/17 14:17:49;;;;;;;17.08;6.85;;;;;;;2.80;84.34;99283.84;2621130;28;20581;-84
2022/12/17 14:19:04;;;;;;;18.08;7.30;;;;;;;2.91;83.84;99284.88;2622018;28;20044;-84
2022/12/17 14:20:27;;;;;;;17.80;7.28;;;;;;;2.64;86.49;99283.56;2622913;28;20048;-84
2022/12/17 14:21:43;;;;;;;14.38;7.20;;;;;;;2.50;88.47;99291.06;2622065;28;20163;-85
2022/12/17 14:23:01;;;;;;;18.80;8.00;;;;;;;2.56;86.37;99287.72;2620530;28;20495;-83
2022/12/17 14:24:25;;;;;;;14.35;6.68;;;;;;;2.14;89.24;99284.34;2623910;28;20048;-84
2022/12/17 14:25:42;;;;;;;14.88;6.85;;;;;;;2.34;86.09;99292.50;2623886;28;20052;-83
2022/12/17 14:26:59;;;;;;;14.23;6.22;;;;;;;2.59;87.78;99292.94;2621370;28;20048;-83
2022/12/17 14:28:33;;;;;;;18.38;7.10;;;;;;;2.42;87.23;99296.94;2621441;28;20511;-84
2022/12/17 14:29:48;;;;;;;16.30;7.57;;;;;;;2.24;86.26;99296.63;2620417;28;20063;-84
2022/12/17 14:31:06;;;;;;;15.85;7.50;;;;;;;2.00;87.88;99299.59;2620341;28;20697;-84
2022/12/17 14:32:33;;;;;;;14.52;6.60;;;;;;;1.86;89.13;99308.75;2620155;28;20052;-87
2022/12/17 14:34:07;;;;;;;15.20;6.93;;;;;;;1.79;90.73;99313.78;2622674;28;20101;-86
2022/12/17 14:35:53;;;;;;;15.30;6.88;;;;;;;1.81;90.36;99306.94;2622480;28;20043;-84
2022/12/17 14:37:18;;;;;;;21.42;7.85;;;;;;;1.63;92.48;99303.97;2620221;28;20129;-84
2022/12/17 14:38:34;;;;;;;14.35;7.22;;;;;;;1.48;93.29;99302.78;2622656;28;20044;-84
2022/12/17 14:39:53;;;;;;;15.90;7.47;;;;;;;1.45;95.02;99310.47;2619223;28;20089;-84
2022/12/17 14:42:47;;;;;;;16.85;6.93;;;;;;;1.16;99.99;99314.94;2621668;28;20142;-85
2022/12/17 14:44:03;;;;;;;17.55;7.65;;;;;;;0.89;100.00;99319.44;2620560;28;20872;-84
2022/12/17 14:45:22;;;;;;;17.35;7.57;;;;;;;0.32;100.00;99311.09;2622985;28;20052;-83
2022/12/17 14:46:38;;;;;;;18.88;7.63;;;;;;;-0.06;100.00;99322.06;2622161;28;20062;-84
2022/12/17 14:48:05;;;;;;;19.17;7.72;;;;;;;-0.46;100.00;99319.16;2620706;28;20048;-87
2022/12/17 14:49:21;;;;;;;17.92;7.15;;;;;;;-0.56;100.00;99332.56;2620557;28;20067;-83
2022/12/17 14:50:37;;;;;;;20.17;7.65;;;;;;;-0.52;100.00;99330.97;2622418;28;20048;-84
2022/12/17 14:51:52;;;;;;;19.35;7.75;;;;;;;-0.52;100.00;99330.97;2623265;28;20044;-84
2022/12/17 14:53:26;;;;;;;15.65;7.65;;;;;;;-0.88;100.00;99342.69;2620872;28;20052;-84
2022/12/17 14:54:45;;;;;;;18.17;7.28;;;;;;;-0.87;100.00;99337.63;2621458;28;20050;-84
2022/12/17 14:56:01;;;;;;;17.25;7.53;;;;;;;-0.80;100.00;99335.22;2620469;28;20052;-83
2022/12/17 14:57:19;;;;;;;19.45;7.80;;;;;;;-0.90;100.00;99341.78;2622412;28;20052;-84
2022/12/17 14:58:44;;;;;;;22.30;8.25;;;;;;;-0.47;100.00;99332.00;2620803;28;20459;-83
2022/12/17 14:59:59;;;;;;;19.48;7.40;;;;;;;-0.54;100.00;99336.09;2621504;28;20051;-84
2022/12/17 15:01:15;;;;;;;18.75;7.07;;;;;;;-0.84;100.00;99343.69;2619962;28;20076;-83
2022/12/17 15:02:33;;;;;;;16.45;6.72;;;;;;;-1.13;100.00;99344.44;2623342;28;20495;-87
2022/12/17 15:03:48;;;;;;;17.42;7.05;;;;;;;-1.11;100.00;99345.41;2621808;28;20059;-84
2022/12/17 15:05:04;;;;;;;17.00;7.43;;;;;;;-1.11;100.00;99347.09;2621069;28;20415;-84
2022/12/17 15:06:20;;;;;;;17.88;7.35;;;;;;;-1.10;100.00;99346.25;2621560;28;20135;-85
2022/12/17 15:07:35;;;;;;;20.50;7.43;;;;;;;-0.81;100.00;99347.22;2621737;28;20084;-85
2022/12/17 15:08:52;;;;;;;19.08;6.90;;;;;;;-0.97;100.00;99345.00;2621878;28;20045;-84
2022/12/17 15:10:10;;;;;;;13.38;6.78;;;;;;;-0.84;100.00;99349.69;2621552;28;20052;-85
2022/12/17 15:11:26;;;;;;;15.55;6.50;;;;;;;-0.97;100.00;99351.00;2621703;28;20401;-85
2022/12/17 15:12:42;;;;;;;18.23;6.95;;;;;;;-1.11;100.00;99357.38;2621691;28;20052;-85
2022/12/17 15:13:57;;;;;;;19.20;6.93;;;;;;;-1.20;100.00;99356.22;2620576;28;20041;-84
2022/12/17 15:15:14;;;;;;;15.85;6.55;;;;;;;-1.34;100.00;99366.03;2620198;28;20052;-84
2022/12/17 15:16:33;;;;;;;20.38;7.38;;;;;;;-1.14;100.00;99361.59;2618559;28;20611;-85
2022/12/17 15:17:49;;;;;;;21.70;7.53;;;;;;;-1.04;100.00;99362.75;2622749;28;20048;-84
2022/12/17 15:19:05;;;;;;;18.60;7.05;;;;;;;-0.90;100.00;99363.25;2622153;28;20040;-85
2022/12/17 15:20:20;;;;;;;18.58;6.85;;;;;;;-0.97;100.00;99368.97;2623067;28;20051;-85
2022/12/17 15:21:36;;;;;;;20.65;7.18;;;;;;;-0.94;100.00;99366.50;2621541;28;20451;-84
2022/12/17 15:22:52;;;;;;;20.45;6.53;;;;;;;-1.29;100.00;99371.34;2622841;28;20105;-87
2022/12/17 15:24:12;;;;;;;19.08;6.78;;;;;;;-1.49;100.00;99368.94;2620168;28;20085;-85
2022/12/17 15:25:27;;;;;;;17.75;7.60;;;;;;;-1.47;100.00;99369.00;2620317;28;20526;-85
2022/12/17 15:26:43;;;;;;;16.63;6.68;;;;;;;-1.28;100.00;99368.81;2620083;28;20102;-85
2022/12/17 15:27:59;;;;;;;18.67;6.15;;;;;;;-1.34;100.00;99371.16;2621749;28;20121;-88
2022/12/17 15:29:15;;;;;;;19.10;7.40;;;;;;;-1.21;100.00;99377.59;2620516;28;20052;-86
2022/12/17 15:30:30;;;;;;;19.30;7.93;;;;;;;-1.12;100.00;99371.03;2620697;28;20118;-88
2022/12/17 15:31:46;;;;;;;20.65;7.78;;;;;;;-1.29;100.00;99381.63;2621495;28;20085;-85
2022/12/17 15:33:02;;;;;;;17.25;7.38;;;;;;;-1.26;100.00;99379.16;2619751;28;20105;-91
2022/12/17 15:34:18;;;;;;;20.38;7.47;;;;;;;-1.44;100.00;99377.69;2622241;28;20052;-86
2022/12/17 15:35:33;;;;;;;18.13;7.50;;;;;;;-1.36;100.00;99377.06;2620190;28;20491;-85
2022/12/17 15:36:49;;;;;;;19.75;7.28;;;;;;;-1.53;100.00;99386.75;2622028;28;20063;-85
2022/12/17 15:38:05;;;;;;;17.52;7.38;;;;;;;-1.50;100.00;99385.16;2620828;28;20052;-85
2022/12/17 15:39:21;;;;;;;21.30;7.80;;;;;;;-1.40;100.00;99385.50;2619977;28;20047;-85
2022/12/17 15:40:37;;;;;;;23.88;7.47;;;;;;;-1.39;100.00;99389.81;2620462;28;20525;-86
2022/12/17 15:43:27;;;;;;;20.38;7.18;;;;;;;-1.34;100.00;99388.25;2621502;28;20994;-87
2022/12/17 15:44:42;;;;;;;18.00;6.85;;;;;;;-1.04;100.00;99397.88;2619893;28;20044;-85
2022/12/17 15:46:00;;;;;;;18.17;7.25;;;;;;;-1.17;100.00;99397.47;2620503;28;20399;-85
2022/12/17 15:47:15;;;;;;;22.77;6.85;;;;;;;-1.29;100.00;99397.88;2620518;28;20134;-86
2022/12/17 15:48:32;;;;;;;22.63;7.65;;;;;;;-1.25;100.00;99400.59;2620881;28;20049;-85
2022/12/17 15:49:48;;;;;;;18.90;7.32;;;;;;;-1.29;100.00;99395.31;2620514;28;20053;-85
2022/12/17 15:51:03;;;;;;;19.40;8.25;;;;;;;-1.21;100.00;99403.28;2621033;28;20043;-85
2022/12/17 15:52:19;;;;;;;22.55;8.63;;;;;;;-0.96;100.00;99400.72;2620506;28;20364;-85
2022/12/17 15:53:35;;;;;;;26.25;9.30;;;;;;;-1.14;100.00;99399.25;2618663;28;20088;-86
2022/12/17 15:54:50;;;;;;;24.10;9.23;;;;;;;-1.06;100.00;99402.97;2621152;28;20048;-86
2022/12/17 15:56:06;;;;;;;21.70;9.05;;;;;;;-1.02;100.00;99404.81;2621892;28;20044;-85
2022/12/17 15:57:22;;;;;;;17.75;7.82;;;;;;;-1.14;100.00;99407.84;2623267;28;20525;-86
2022/12/17 15:58:38;;;;;;;18.15;8.00;;;;;;;-1.10;100.00;99406.25;2621691;28;20067;-85
2022/12/17 15:59:53;;;;;;;22.17;7.65;;;;;;;-0.82;100.00;99406.31;2621315;28;20456;-85
2022/12/17 16:01:09;;;;;;;20.15;7.47;;;;;;;-0.74;100.00;99405.72;2621121;28;20036;-85
2022/12/17 16:02:24;;;;;;;25.67;7.70;;;;;;;-0.92;100.00;99406.00;2621693;28;20549;-85
2022/12/17 16:03:40;;;;;;;20.00;6.95;;;;;;;-1.12;100.00;99412.16;2621198;28;20055;-85
2022/12/17 16:04:56;;;;;;;19.88;8.93;;;;;;;-0.94;100.00;99409.34;2620752;28;20059;-86
2022/12/17 16:06:11;;;;;;;18.42;8.43;;;;;;;-0.69;100.00;99411.03;2621205;28;20273;-85
2022/12/17 16:07:27;;;;;;;13.25;6.57;;;;;;;-0.73;100.00;99404.91;2620157;28;20734;-87
2022/12/17 16:08:43;;;;;;;19.08;7.60;;;;;;;-0.87;100.00;99406.16;2620242;28;20052;-86
2022/12/17 16:09:58;;;;;;;18.63;7.93;;;;;;;-1.01;100.00;99408.25;2622271;28;20086;-86
2022/12/17 16:11:14;;;;;;;17.27;7.60;;;;;;;-0.89;100.00;99410.38;2621334;28;20079;-86
2022/12/17 16:12:30;;;;;;;19.17;8.65;;;;;;;-0.88;100.00;99406.97;2621414;28;20052;-89
2022/12/17 16:13:46;;;;;;;20.48;8.95;;;;;;;-0.81;100.00;99414.09;2619373;28;20056;-86
2022/12/17 16:15:02;;;;;;;23.10;10.63;;;;;;;-0.81;100.00;99410.63;2618914;28;20052;-86
2022/12/17 16:16:18;;;;;;;26.00;11.73;;;;;;;-1.18;100.00;99416.28;2620271;28;20491;-85
2022/12/17 16:17:33;;;;;;;30.05;12.10;;;;;;;-0.95;100.00;99415.31;2620203;28;20324;-86
2022/12/17 16:18:51;;;;;;;30.90;12.50;;;;;;;-0.81;100.00;99416.66;2621130;28;20979;-86
2022/12/17 16:20:07;;;;;;;31.25;13.15;;;;;;;-0.78;100.00;99413.28;2619865;28;20756;-85
2022/12/17 16:21:22;;;;;;;30.83;14.15;;;;;;;-0.75;100.00;99411.72;2621027;28;20176;-86
2022/12/17 16:22:38;;;;;;;35.33;14.32;;;;;;;-0.67;100.00;99413.66;2620426;28;20061;-86
2022/12/17 16:23:53;;;;;;;42.53;14.93;;;;;;;-0.65;100.00;99417.16;2620080;28;20465;-84
2022/12/17 16:25:09;;;;;;;36.33;14.65;;;;;;;-0.63;100.00;99420.66;2620957;28;20041;-84
2022/12/17 16:26:25;;;;;;;36.72;14.10;;;;;;;-0.60;100.00;99415.59;2619873;28;20044;-84
2022/12/17 16:27:40;;;;;;;40.53;18.17;;;;;;;-0.65;100.00;99415.44;2616804;28;20048;-87
2022/12/17 16:28:57;;;;;;;57.00;20.30;;;;;;;-0.70;100.00;99411.88;2619911;28;20147;-84
2022/12/17 16:30:13;;;;;;;50.88;20.05;;;;;;;-0.71;100.00;99413.53;2620091;28;20106;-85
2022/12/17 16:31:28;;;;;;;53.35;21.08;;;;;;;-0.89;100.00;99418.09;2620878;28;20492;-84
2022/12/17 16:32:44;;;;;;;52.25;22.80;;;;;;;-0.83;100.00;99420.00;2621942;28;20048;-85
2022/12/17 16:34:00;;;;;;;48.83;20.83;;;;;;;-0.84;100.00;99413.09;2621598;28;20082;-87
2022/12/17 16:35:15;;;;;;;44.50;19.45;;;;;;;-0.89;100.00;99426.69;2621662;28;20048;-85
2022/12/17 16:36:31;;;;;;;51.75;19.95;;;;;;;-0.83;100.00;99420.88;2621552;28;20048;-84
2022/12/17 16:37:46;;;;;;;43.53;18.08;;;;;;;-0.87;100.00;99421.56;2622550;28;20978;-84
2022/12/17 16:39:02;;;;;;;37.40;16.45;;;;;;;-1.13;100.00;99411.28;2620166;28;20080;-85
2022/12/17 16:40:18;;;;;;;40.33;16.35;;;;;;;-1.22;100.00;99416.09;2620391;28;20081;-85
2022/12/17 16:41:33;;;;;;;37.75;14.20;;;;;;;-1.17;100.00;99423.16;2620928;28;20060;-85
2022/12/17 16:42:49;;;;;;;32.60;12.85;;;;;;;-1.22;100.00;99429.81;2620000;28;20057;-85
2022/12/17 16:44:05;;;;;;;32.50;11.40;;;;;;;-1.44;100.00;99426.50;2621103;28;20044;-85
2022/12/17 16:45:20;;;;;;;25.80;10.07;;;;;;;-1.37;100.00;99426.69;2622274;28;20049;-89
2022/12/17 16:46:39;;;;;;;27.42;9.73;;;;;;;-1.24;100.00;99428.03;2619948;28;20051;-89
2022/12/17 16:47:55;;;;;;;22.25;8.70;;;;;;;-1.23;100.00;99427.22;2621890;28;20052;-85
2022/12/17 16:49:19;;;;;;;22.20;8.75;;;;;;;-1.39;100.00;99429.22;2619683;28;20052;-85
2022/12/17 16:50:35;;;;;;;25.08;9.10;;;;;;;-1.48;100.00;99436.59;2620177;28;20052;-85
2022/12/17 16:51:52;;;;;;;22.38;8.73;;;;;;;-1.39;100.00;99429.22;2620912;28;20063;-85
2022/12/17 16:53:07;;;;;;;19.73;8.48;;;;;;;-1.35;100.00;99430.19;2620404;28;20052;-84
2022/12/17 16:54:26;;;;;;;24.77;9.05;;;;;;;-1.65;100.00;99425.69;2620421;28;20044;-85
2022/12/17 16:55:46;;;;;;;24.10;9.50;;;;;;;-1.60;100.00;99429.31;2618313;28;20127;-85
2022/12/17 16:57:01;;;;;;;25.08;10.27;;;;;;;-1.51;100.00;99434.78;2621473;28;20513;-86
2022/12/17 16:58:17;;;;;;;20.73;9.32;;;;;;;-1.45;100.00;99435.03;2619850;28;20051;-86
2022/12/17 16:59:32;;;;;;;27.85;10.65;;;;;;;-1.46;100.00;99434.94;2622302;28;20437;-86
2022/12/17 17:00:53;;;;;;;28.20;10.55;;;;;;;-1.60;100.00;99432.75;2620268;28;20052;-87
2022/12/17 17:02:12;;;;;;;27.02;11.65;;;;;;;-1.57;100.00;99425.16;2620613;28;20044;-85
2022/12/17 17:03:27;;;;;;;31.35;13.60;;;;;;;-1.51;100.00;99428.78;2621831;28;20089;-86
2022/12/17 17:04:43;;;;;;;29.65;13.02;;;;;;;-1.52;100.00;99432.19;2619242;28;20143;-85
2022/12/17 17:06:00;;;;;;;31.08;14.27;;;;;;;-1.48;100.00;99428.88;2620382;28;20573;-87
2022/12/17 17:07:15;;;;;;;39.75;16.02;;;;;;;-1.50;100.00;99438.25;2620158;28;20044;-85
2022/12/17 17:08:31;;;;;;;35.63;15.82;;;;;;;-1.64;100.00;99433.47;2620177;28;20614;-84
2022/12/17 17:09:46;;;;;;;33.33;14.43;;;;;;;-2.07;100.00;99436.97;2618866;28;20048;-85
2022/12/17 17:11:11;;;;;;;36.17;15.45;;;;;;;-2.12;100.00;99439.34;2621464;28;20081;-87
2022/12/17 17:12:26;;;;;;;36.30;15.95;;;;;;;-2.04;100.00;99449.91;2620779;28;20483;-84
2022/12/17 17:13:42;;;;;;;35.08;14.20;;;;;;;-2.17;100.00;99446.88;2620897;28;20422;-84
2022/12/17 17:14:58;;;;;;;36.88;14.95;;;;;;;-1.96;100.00;99447.66;2619873;28;20426;-87
2022/12/17 17:16:14;;;;;;;37.83;15.40;;;;;;;-1.93;100.00;99453.78;2620032;28;20075;-84
2022/12/17 17:17:30;;;;;;;37.00;15.05;;;;;;;-1.97;100.00;99454.44;2620009;28;20575;-85
2022/12/17 17:18:46;;;;;;;36.05;14.75;;;;;;;-2.11;100.00;99453.94;2620002;28;20048;-85
2022/12/17 17:20:02;;;;;;;36.67;15.60;;;;;;;-2.24;100.00;99451.69;2619981;28;20422;-85
2022/12/17 17:21:18;;;;;;;36.95;14.02;;;;;;;-2.29;100.00;99454.06;2621482;28;20494;-86
2022/12/17 17:22:33;;;;;;;35.70;14.02;;;;;;;-2.16;100.00;99461.44;2620296;28;20468;-86
2022/12/17 17:23:55;;;;;;;38.28;15.23;;;;;;;-2.14;100.00;99456.38;2619906;28;20090;-85
2022/12/17 17:25:11;;;;;;;;;;;;;;;-2.08;100.00;99458.31;2621539;28;20044;-84
2022/12/17 17:26:29;;;;;;;36.80;12.98;;;;;;;-2.14;100.00;99462.38;2622231;28;19955;-85
2022/12/17 17:27:44;;;;;;;34.67;12.82;;;;;;;-2.42;100.00;99468.09;2622495;28;20056;-85
2022/12/17 17:29:01;;;;;;;37.13;14.10;;;;;;;-2.73;100.00;99467.69;2623322;28;20391;-84
2022/12/17 17:30:16;;;;;;;39.47;14.90;;;;;;;-2.47;100.00;99461.88;2622227;28;20126;-85
2022/12/17 17:31:33;;;;;;;33.05;13.27;;;;;;;-2.43;100.00;99461.22;2622610;28;20048;-84
2022/12/17 17:32:49;;;;;;;41.50;15.57;;;;;;;-2.78;100.00;99461.50;2622959;28;20060;-85
2022/12/17 17:34:12;;;;;;;32.30;13.00;;;;;;;-3.19;100.00;99473.44;2622625;28;20044;-84
2022/12/17 17:35:28;;;;;;;33.22;12.05;;;;;;;-3.13;100.00;99464.31;2621316;28;20040;-85
2022/12/17 17:36:44;;;;;;;34.45;14.45;;;;;;;-3.08;100.00;99474.75;2624155;28;20048;-84
2022/12/17 17:37:59;;;;;;;36.38;13.77;;;;;;;-3.31;100.00;99469.50;2623901;28;20052;-86
2022/12/17 17:39:15;;;;;;;31.35;12.38;;;;;;;-3.49;100.00;99473.78;2624683;28;20053;-83
2022/12/17 17:40:31;;;;;;;31.80;13.48;;;;;;;-3.42;100.00;99474.16;2622721;28;20059;-88
2022/12/17 17:41:46;;;;;;;36.42;13.60;;;;;;;-3.57;100.00;99476.00;2623419;28;20127;-86
2022/12/17 17:43:02;;;;;;;27.20;12.10;;;;;;;-3.70;100.00;99483.16;2623967;28;20137;-85
2022/12/17 17:44:18;;;;;;;26.02;9.65;;;;;;;-3.73;100.00;99489.78;2624078;28;20140;-85
2022/12/17 17:45:34;;;;;;;28.10;9.82;;;;;;;-3.96;100.00;99489.59;2621416;28;20051;-84
2022/12/17 17:46:49;;;;;;;26.45;9.95;;;;;;;-3.66;100.00;99489.25;2622908;28;20048;-89
2022/12/17 17:48:05;;;;;;;27.83;10.55;;;;;;;-3.48;100.00;99496.06;2622681;28;20651;-85
2022/12/17 17:49:21;;;;;;;26.80;10.88;;;;;;;-3.66;100.00;99498.63;2622186;28;20051;-85
2022/12/17 17:50:36;;;;;;;29.27;11.50;;;;;;;-3.64;100.00;99500.44;2621697;28;20051;-88
2022/12/17 17:51:52;;;;;;;30.52;11.40;;;;;;;-3.64;100.00;99497.88;2621781;28;20133;-87
2022/12/17 17:53:07;;;;;;;29.35;10.88;;;;;;;-3.66;100.00;99499.50;2622304;28;20521;-84
2022/12/17 17:54:23;;;;;;;29.15;11.38;;;;;;;-3.64;100.00;99500.44;2622263;28;20044;-84
2022/12/17 17:55:39;;;;;;;34.83;12.15;;;;;;;-3.73;100.00;99505.16;2622725;28;20044;-84
2022/12/17 17:56:54;;;;;;;28.30;11.35;;;;;;;-3.52;100.00;99500.16;2624232;28;20044;-84
2022/12/17 17:58:10;;;;;;;35.08;12.98;;;;;;;-3.52;100.00;99505.25;2622835;28;20059;-84
2022/12/17 17:59:26;;;;;;;28.83;11.30;;;;;;;-3.53;100.00;99508.63;2620412;28;20075;-86
2022/12/17 18:00:42;;;;;;;32.92;12.25;;;;;;;-3.56;100.00;99509.38;2620697;28;20052;-85
2022/12/17 18:01:57;;;;;;;36.22;12.52;;;;;;;-3.60;100.00;99507.47;2620662;28;20607;-85
2022/12/17 18:03:12;;;;;;;29.25;11.88;;;;;;;-3.27;100.00;99491.00;2622545;28;20060;-86
2022/12/17 18:04:28;;;;;;;30.80;11.75;;;;;;;-3.21;100.00;99492.94;2622230;28;20469;-84
2022/12/17 18:05:44;;;;;;;22.42;9.95;;;;;;;-3.74;100.00;99508.53;2623581;28;20419;-84
2022/12/17 18:06:59;;;;;;;33.38;10.23;;;;;;;-3.63;100.00;99509.91;2621068;28;20040;-84
2022/12/17 18:08:15;;;;;;;27.35;8.32;;;;;;;-3.74;100.00;99511.06;2621666;28;20055;-84
2022/12/17 18:09:31;;;;;;;21.35;8.63;;;;;;;-3.46;100.00;99514.91;2622467;28;20056;-84
2022/12/17 18:10:57;;;;;;;26.23;11.00;;;;;;;-3.48;100.00;99512.28;2621896;28;20044;-85
2022/12/17 18:13:55;;;;;;;27.50;10.27;;;;;;;-3.62;100.00;99514.22;2620565;28;20556;-84
2022/12/17 18:15:12;;;;;;;22.40;9.68;;;;;;;-3.60;100.00;99511.69;2620826;28;20074;-83
2022/12/17 18:16:34;;;;;;;26.85;9.35;;;;;;;-3.65;100.00;99514.03;2623889;28;20048;-83
2022/12/17 18:17:50;;;;;;;26.08;10.38;;;;;;;-3.42;100.00;99514.25;2621523;28;20567;-83
2022/12/17 18:19:10;;;;;;;28.23;10.70;;;;;;;-3.34;100.00;99504.34;2621914;28;20158;-84
2022/12/17 18:20:25;;;;;;;28.00;10.85;;;;;;;-3.51;100.00;99521.47;2621984;28;20140;-85
2022/12/17 18:21:41;;;;;;;27.65;9.43;;;;;;;-3.96;100.00;99517.72;2622803;28;20055;-84
2022/12/17 18:22:57;;;;;;;24.90;9.57;;;;;;;-4.02;100.00;99525.13;2621682;28;20051;-84
2022/12/17 18:24:15;;;;;;;23.15;8.27;;;;;;;-4.29;100.00;99522.97;2620047;28;20048;-85
2022/12/17 18:25:33;;;;;;;17.02;7.00;;;;;;;-4.55;100.00;99520.88;2621650;28;20101;-86
2022/12/17 18:26:50;;;;;;;17.42;7.40;;;;;;;-4.71;100.00;99524.34;2621313;28;20159;-91
2022/12/17 18:28:06;;;;;;;17.58;7.90;;;;;;;-4.68;100.00;99523.59;2620302;28;20044;-83
2022/12/17 18:29:25;;;;;;;18.48;7.97;;;;;;;-4.57;100.00;99526.72;2622551;28;20410;-83
2022/12/17 18:30:44;;;;;;;14.27;6.30;;;;;;;-4.70;100.00;99523.56;2622334;28;20483;-86
2022/12/17 18:32:00;;;;;;;18.67;7.43;;;;;;;-4.49;100.00;99525.41;2622518;28;20783;-87
2022/12/17 18:33:15;;;;;;;17.55;6.97;;;;;;;-4.57;100.00;99525.03;2622093;28;20071;-84
2022/12/17 18:34:32;;;;;;;20.67;8.07;;;;;;;-4.48;100.00;99522.06;2621342;28;20491;-88
2022/12/17 18:35:48;;;;;;;23.20;8.77;;;;;;;-4.04;100.00;99530.16;2621823;28;20446;-84
2022/12/17 18:37:04;;;;;;;22.73;8.98;;;;;;;-4.07;100.00;99541.91;2622844;28;20048;-83
2022/12/17 18:38:19;;;;;;;18.48;7.35;;;;;;;-4.41;100.00;99531.78;2621698;28;20600;-86
2022/12/17 18:39:35;;;;;;;19.10;7.95;;;;;;;-4.90;100.00;99537.84;2620914;28;20132;-83
2022/12/17 18:40:51;;;;;;;13.07;5.95;;;;;;;-5.07;100.00;99549.75;2614647;28;20079;-86
2022/12/17 18:43:42;;;;;;;14.77;5.88;;;;;;;-5.11;100.00;99548.69;2621475;28;20048;-83
2022/12/17 18:44:57;;;;;;;13.05;5.15;;;;;;;-5.14;100.00;99558.75;2620350;28;20048;-83
2022/12/17 18:46:13;;;;;;;20.02;7.82;;;;;;;-4.91;100.00;99556.53;2621404;28;20246;-84
2022/12/17 18:47:28;;;;;;;22.75;7.32;;;;;;;-4.85;100.00;99555.97;2621364;28;20056;-84
2022/12/17 18:48:44;;;;;;;25.83;9.02;;;;;;;-4.82;100.00;99554.47;2623300;28;20078;-85
2022/12/17 18:49:59;;;;;;;22.52;6.80;;;;;;;-4.80;100.00;99554.53;2622556;28;20044;-85
2022/12/17 18:51:15;;;;;;;18.42;6.97;;;;;;;-4.62;100.00;99553.72;2621946;28;20067;-83
2022/12/17 18:52:31;;;;;;;25.10;8.18;;;;;;;-4.44;100.00;99551.22;2620820;28;20632;-87
2022/12/17 18:53:48;;;;;;;22.05;8.25;;;;;;;-4.37;100.00;99560.06;2621751;28;20044;-85
2022/12/17 18:55:04;;;;;;;26.20;8.23;;;;;;;-4.48;100.00;99552.72;2622721;28;20040;-83
2022/12/17 18:56:20;;;;;;;24.45;7.82;;;;;;;-4.61;100.00;99564.03;2621329;28;20083;-84
2022/12/17 18:57:35;;;;;;;13.20;5.90;;;;;;;-4.90;100.00;99565.06;2620105;28;20052;-84
2022/12/17 18:58:52;;;;;;;18.83;7.18;;;;;;;-5.19;100.00;99572.97;2620227;28;20045;-83
2022/12/17 19:00:08;;;;;;;20.13;6.55;;;;;;;-5.18;100.00;99573.81;2621000;28;20070;-85
2022/12/17 19:01:32;;;;;;;19.33;6.70;;;;;;;-5.11;100.00;99578.47;2621056;28;20837;-83
2022/12/17 19:02:48;;;;;;;16.85;6.30;;;;;;;-5.06;100.00;99579.59;2622838;28;20063;-82
2022/12/17 19:04:05;;;;;;;20.80;7.95;;;;;;;-4.94;100.00;99583.59;2621334;28;20548;-83
2022/12/17 19:05:21;;;;;;;20.55;6.35;;;;;;;-5.09;100.00;99582.00;2621296;28;20578;-84
2022/12/17 19:06:38;;;;;;;20.73;7.95;;;;;;;-5.01;100.00;99583.28;2622170;28;20052;-83
2022/12/17 19:07:54;;;;;;;20.67;8.60;;;;;;;-5.11;100.00;99584.44;2622769;28;20048;-83
2022/12/17 19:09:18;;;;;;;22.38;8.13;;;;;;;-5.36;100.00;99579.72;2621447;28;20467;-83
2022/12/17 19:10:34;;;;;;;24.23;7.90;;;;;;;-5.26;100.00;99589.63;2619893;28;20056;-83
2022/12/17 19:11:52;;;;;;;25.42;8.55;;;;;;;-4.91;100.00;99589.75;2620426;28;20044;-82
2022/12/17 19:13:08;;;;;;;26.02;8.27;;;;;;;-5.03;100.00;99592.53;2620603;28;20079;-84
2022/12/17 19:14:24;;;;;;;19.83;8.02;;;;;;;-4.81;100.00;99593.66;2620383;28;20056;-82